createdAt,value
2019-03-18T00:00:23.901Z,1.50
2019-03-18T00:02:53.384Z,0.40
2019-03-18T00:05:22.814Z,1.73
2019-03-18T00:07:52.244Z,0.70
2019-03-18T00:10:21.670Z,0.50
2019-03-18T00:12:52.223Z,0.97
2019-03-18T00:15:21.795Z,0.87
2019-03-18T00:17:51.289Z,0.47
2019-03-18T00:20:20.725Z,1.37
2019-03-18T00:22:50.157Z,0.47
2019-03-18T00:25:19.586Z,1.97
2019-03-18T00:27:49.017Z,0.50
2019-03-18T00:30:20.070Z,0.53
2019-03-18T00:32:49.740Z,0.73
2019-03-18T00:35:19.229Z,1.43
2019-03-18T00:37:48.664Z,0.20
2019-03-18T00:40:20.094Z,0.30
2019-03-18T00:42:49.599Z,0.57
2019-03-18T00:45:19.020Z,2.00
2019-03-18T00:47:48.528Z,0.60
2019-03-18T00:50:18.216Z,1.27
2019-03-18T00:52:47.649Z,0.70
2019-03-18T00:55:17.073Z,0.93
2019-03-18T00:57:46.507Z,1.73
2019-03-18T01:00:20.049Z,1.00
2019-03-18T01:02:50.079Z,1.03
2019-03-18T01:05:19.666Z,0.67
2019-03-18T01:07:49.092Z,1.83
2019-03-18T01:10:19.159Z,0.57
2019-03-18T01:12:48.582Z,1.03
2019-03-18T01:15:27.241Z,1.17
2019-03-18T01:17:49.162Z,1.03
2019-03-18T01:20:18.576Z,1.20
2019-03-18T01:22:48.015Z,2.87
2019-03-18T01:25:17.433Z,0.87
2019-03-18T01:27:46.878Z,0.70
2019-03-18T01:30:16.694Z,1.30
2019-03-18T01:32:46.122Z,0.60
2019-03-18T01:35:15.539Z,1.00
2019-03-18T01:37:44.967Z,0.60
2019-03-18T01:40:15.029Z,0.93
2019-03-18T01:42:44.735Z,1.03
2019-03-18T01:45:15.126Z,0.80
2019-03-18T01:47:44.563Z,0.60
2019-03-18T01:50:15.499Z,0.40
2019-03-18T01:52:45.007Z,1.03
2019-03-18T01:55:14.435Z,0.70
2019-03-18T01:57:43.868Z,1.80
2019-03-18T02:00:15.877Z,1.37
2019-03-18T02:02:45.306Z,0.90
2019-03-18T02:05:14.728Z,1.27
2019-03-18T02:07:44.162Z,1.13
2019-03-18T02:10:19.524Z,1.90
2019-03-18T02:12:49.051Z,0.60
2019-03-18T02:15:18.459Z,1.67
2019-03-18T02:17:47.899Z,0.70
2019-03-18T02:20:19.721Z,1.00
2019-03-18T02:22:49.211Z,0.53
2019-03-18T02:25:18.641Z,1.27
2019-03-18T02:27:48.081Z,1.30
2019-03-18T02:30:19.672Z,1.20
2019-03-18T02:32:49.143Z,2.60
2019-03-18T02:35:18.552Z,0.63
2019-03-18T02:37:48.021Z,1.00
2019-03-18T02:40:17.578Z,2.67
2019-03-18T02:42:47.065Z,1.00
2019-03-18T02:45:16.489Z,0.90
2019-03-18T02:47:45.917Z,1.50
2019-03-18T02:50:15.343Z,1.80
2019-03-18T02:52:44.776Z,1.10
2019-03-18T02:55:14.202Z,1.20
2019-03-18T02:57:43.635Z,1.03
2019-03-18T03:00:15.273Z,0.50
2019-03-18T03:02:44.698Z,1.43
2019-03-18T03:05:15.045Z,0.90
2019-03-18T03:07:44.499Z,1.30
2019-03-18T03:10:15.009Z,1.70
2019-03-18T03:12:44.690Z,1.97
2019-03-18T03:15:15.098Z,1.33
2019-03-18T03:17:44.685Z,0.73
2019-03-18T03:20:14.349Z,0.67
2019-03-18T03:22:43.779Z,1.63
2019-03-18T03:25:13.330Z,1.03
2019-03-18T03:27:42.777Z,1.87
2019-03-18T03:30:16.385Z,1.00
2019-03-18T03:32:45.781Z,1.73
2019-03-18T03:35:15.254Z,1.27
2019-03-18T03:37:44.660Z,2.60
2019-03-18T03:40:14.317Z,0.63
2019-03-18T03:42:43.734Z,1.03
2019-03-18T03:45:15.109Z,1.47
2019-03-18T03:47:44.601Z,0.83
2019-03-18T03:50:15.703Z,1.07
2019-03-18T03:52:45.110Z,0.90
2019-03-18T03:55:15.098Z,0.97
2019-03-18T03:57:44.583Z,1.03
2019-03-18T04:00:17.749Z,1.03
2019-03-18T04:02:47.170Z,1.33
2019-03-18T04:05:16.601Z,1.67
2019-03-18T04:07:46.023Z,1.37
2019-03-18T04:10:15.938Z,1.57
2019-03-18T04:12:45.360Z,0.93
2019-03-18T04:15:16.057Z,1.10
2019-03-18T04:17:45.459Z,2.47
2019-03-18T04:20:17.274Z,1.93
2019-03-18T04:22:46.854Z,0.93
2019-03-18T04:25:16.283Z,1.53
2019-03-18T04:27:45.992Z,2.00
2019-03-18T04:30:16.248Z,2.10
2019-03-18T04:32:45.679Z,3.67
2019-03-18T04:35:15.104Z,2.30
2019-03-18T04:37:44.516Z,1.00
2019-03-18T04:40:13.958Z,1.17
2019-03-18T04:42:43.366Z,1.60
2019-03-18T04:45:12.804Z,1.53
2019-03-18T04:47:42.225Z,1.13
2019-03-18T04:50:13.066Z,0.60
2019-03-18T04:52:42.500Z,0.70
2019-03-18T04:55:11.927Z,1.50
2019-03-18T04:57:41.357Z,3.47
2019-03-18T05:00:14.668Z,1.87
2019-03-18T05:02:44.083Z,1.00
2019-03-18T05:05:13.522Z,0.63
2019-03-18T05:07:42.942Z,0.77
2019-03-18T05:10:12.751Z,1.87
2019-03-18T05:12:42.179Z,1.13
2019-03-18T05:15:12.486Z,3.53
2019-03-18T05:17:41.909Z,1.87
2019-03-18T05:20:12.527Z,1.27
2019-03-18T05:22:41.900Z,0.67
2019-03-18T05:25:11.774Z,1.63
2019-03-18T05:27:41.197Z,2.47
2019-03-18T05:30:13.433Z,2.03
2019-03-18T05:32:42.855Z,1.33
2019-03-18T05:35:12.284Z,1.77
2019-03-18T05:37:41.710Z,2.67
2019-03-18T05:40:11.280Z,2.13
2019-03-18T05:42:40.700Z,1.80
2019-03-18T05:45:11.739Z,1.83
2019-03-18T05:47:41.167Z,0.70
2019-03-18T05:50:11.846Z,0.87
2019-03-18T05:52:41.335Z,1.37
2019-03-18T05:55:11.670Z,1.47
2019-03-18T05:57:41.096Z,0.97
2019-03-18T06:00:14.726Z,2.03
2019-03-18T06:02:46.801Z,1.47
2019-03-18T06:05:15.384Z,1.57
2019-03-18T06:07:44.811Z,1.10
2019-03-18T06:10:14.760Z,1.20
2019-03-18T06:12:44.185Z,2.83
2019-03-18T06:15:14.256Z,1.27
2019-03-18T06:17:52.397Z,2.67
2019-03-18T06:20:15.072Z,3.07
2019-03-18T06:22:44.495Z,0.90
2019-03-18T06:25:13.948Z,1.30
2019-03-18T06:27:43.350Z,1.53
2019-03-18T06:30:16.729Z,0.83
2019-03-18T06:32:46.150Z,0.90
2019-03-18T06:35:15.591Z,1.53
2019-03-18T06:37:45.089Z,1.80
2019-03-18T06:40:17.492Z,0.97
2019-03-18T06:42:46.918Z,0.80
2019-03-18T06:45:16.358Z,0.70
2019-03-18T06:47:45.790Z,3.63
2019-03-18T06:50:15.213Z,0.60
2019-03-18T06:52:44.645Z,2.43
2019-03-18T06:55:14.068Z,1.13
2019-03-18T06:57:43.508Z,2.40
2019-03-18T07:00:17.579Z,1.73
2019-03-18T07:02:47.042Z,0.70
2019-03-18T07:05:16.471Z,2.30
2019-03-18T07:07:45.958Z,1.00
2019-03-18T07:10:15.460Z,1.07
2019-03-18T07:12:44.894Z,0.83
2019-03-18T07:15:14.394Z,1.20
2019-03-18T07:17:43.851Z,0.70
2019-03-18T07:20:14.832Z,1.40
2019-03-18T07:22:44.263Z,0.90
2019-03-18T07:25:13.729Z,1.93
2019-03-18T07:27:43.157Z,0.90
2019-03-18T07:30:14.524Z,0.90
2019-03-18T07:32:43.967Z,0.90
2019-03-18T07:35:13.406Z,1.00
2019-03-18T07:37:44.613Z,1.80
2019-03-18T07:40:15.838Z,1.07
2019-03-18T07:42:45.274Z,2.23
2019-03-18T07:45:16.314Z,0.83
2019-03-18T07:47:45.931Z,1.40
2019-03-18T07:50:16.885Z,2.30
2019-03-18T07:52:46.326Z,1.93
2019-03-18T07:55:16.092Z,1.40
2019-03-18T07:58:04.865Z,2.30
2019-03-18T08:00:34.285Z,1.43
2019-03-18T08:03:03.730Z,3.00
2019-03-18T08:05:33.148Z,1.10
2019-03-18T08:08:02.598Z,1.20
2019-03-18T08:10:32.024Z,2.13
2019-03-18T08:13:01.458Z,1.13
2019-03-18T08:15:30.884Z,0.83
2019-03-18T08:18:00.484Z,1.57
2019-03-18T08:20:29.910Z,2.13
2019-03-18T08:22:59.369Z,1.33
2019-03-18T08:25:28.810Z,1.60
2019-03-18T08:27:58.229Z,0.60
2019-03-18T08:30:27.666Z,1.23
2019-03-18T08:32:57.082Z,1.23
2019-03-18T08:35:26.542Z,0.70
2019-03-18T08:37:55.967Z,1.87
2019-03-18T08:40:25.400Z,0.87
2019-03-18T08:42:54.817Z,1.80
2019-03-18T08:45:24.260Z,2.13
2019-03-18T08:47:53.684Z,1.50
2019-03-18T08:50:23.109Z,4.53
2019-03-18T08:52:52.536Z,1.67
2019-03-18T08:55:21.977Z,1.07
2019-03-18T08:57:51.408Z,1.70
2019-03-18T09:00:21.120Z,1.53
2019-03-18T09:02:50.621Z,1.90
2019-03-18T09:05:20.049Z,1.43
2019-03-18T09:07:49.464Z,1.63
2019-03-18T09:10:19.273Z,1.23
2019-03-18T09:12:48.707Z,0.80
2019-03-18T09:15:18.131Z,1.40
2019-03-18T09:17:47.610Z,2.23
2019-03-18T09:20:18.881Z,0.80
2019-03-18T09:22:48.338Z,1.43
2019-03-18T09:25:17.767Z,1.80
2019-03-18T09:27:47.195Z,3.00
2019-03-18T09:30:21.083Z,3.97
2019-03-18T09:32:50.562Z,2.67
2019-03-18T09:35:19.979Z,2.40
2019-03-18T09:37:49.416Z,2.57
2019-03-18T09:40:18.935Z,2.87
2019-03-18T09:42:48.340Z,3.37
2019-03-18T09:45:18.678Z,1.50
2019-03-18T09:47:48.121Z,1.37
2019-03-18T09:50:17.611Z,2.63
2019-03-18T09:52:47.043Z,3.77
2019-03-18T09:55:16.516Z,2.40
2019-03-18T09:57:45.905Z,1.80
2019-03-18T10:00:20.279Z,1.23
2019-03-18T10:02:49.720Z,3.27
2019-03-18T10:05:19.134Z,1.73
2019-03-18T10:07:48.566Z,1.33
2019-03-18T10:10:18.032Z,2.77
2019-03-18T10:12:47.431Z,1.13
2019-03-18T10:15:21.248Z,0.73
2019-03-18T10:17:50.681Z,1.17
2019-03-18T10:20:20.125Z,0.90
2019-03-18T10:22:49.560Z,2.13
2019-03-18T10:25:18.973Z,1.83
2019-03-18T10:27:48.401Z,1.37
2019-03-18T10:30:17.897Z,4.03
2019-03-18T10:32:47.388Z,0.93
2019-03-18T10:35:16.771Z,3.23
2019-03-18T10:37:46.202Z,4.67
2019-03-18T10:40:15.962Z,1.33
2019-03-18T10:42:45.409Z,1.70
2019-03-18T10:45:15.474Z,2.47
2019-03-18T10:47:44.900Z,1.50
2019-03-18T10:50:16.440Z,0.90
2019-03-18T10:52:46.119Z,1.57
2019-03-18T10:55:15.570Z,1.43
2019-03-18T10:57:44.975Z,1.70
2019-03-18T11:00:19.355Z,0.87
2019-03-18T11:02:49.143Z,1.63
2019-03-18T11:05:18.563Z,0.80
2019-03-18T11:07:47.996Z,0.80
2019-03-18T11:10:17.859Z,0.93
2019-03-18T11:12:47.292Z,1.00
2019-03-18T11:15:19.704Z,0.57
2019-03-18T11:17:49.179Z,1.27
2019-03-18T11:20:18.648Z,1.50
2019-03-18T11:22:48.365Z,1.60
2019-03-18T11:25:19.340Z,0.90
2019-03-18T11:27:48.766Z,1.00
2019-03-18T11:30:19.775Z,1.80
2019-03-18T11:32:49.210Z,0.40
2019-03-18T11:35:18.651Z,0.30
2019-03-18T11:37:48.073Z,0.77
2019-03-18T11:40:21.632Z,0.70
2019-03-18T11:42:51.055Z,0.80
2019-03-18T11:45:20.492Z,0.50
2019-03-18T11:47:49.918Z,0.43
2019-03-18T11:50:20.597Z,0.50
2019-03-18T11:52:50.025Z,0.30
2019-03-18T11:55:28.326Z,0.90
2019-03-18T11:57:57.991Z,0.40
2019-03-18T12:00:28.166Z,0.70
2019-03-18T12:02:57.666Z,2.57
2019-03-18T12:05:28.215Z,1.07
2019-03-18T12:07:57.794Z,0.83
2019-03-18T12:10:27.241Z,2.10
2019-03-18T12:12:56.670Z,0.73
2019-03-18T12:15:27.535Z,1.67
2019-03-18T12:17:56.962Z,0.43
2019-03-18T12:20:26.408Z,0.57
2019-03-18T12:22:55.840Z,1.37
2019-03-18T12:25:25.271Z,1.03
2019-03-18T12:27:54.704Z,1.50
2019-03-18T12:30:28.362Z,0.93
2019-03-18T12:32:57.797Z,0.67
2019-03-18T12:35:27.235Z,0.77
2019-03-18T12:37:56.734Z,0.73
2019-03-18T12:40:26.169Z,1.17
2019-03-18T12:42:55.601Z,1.87
2019-03-18T12:45:25.042Z,0.60
2019-03-18T12:47:54.478Z,2.30
2019-03-18T12:50:43.015Z,0.70
2019-03-18T12:52:56.158Z,0.97
2019-03-18T12:55:25.593Z,1.33
2019-03-18T12:57:55.022Z,0.37
2019-03-18T13:00:37.485Z,1.43
2019-03-18T13:03:06.915Z,1.07
2019-03-18T13:05:36.354Z,1.23
2019-03-18T13:08:05.785Z,3.70
2019-03-18T13:10:35.238Z,1.23
2019-03-18T13:13:04.804Z,0.87
2019-03-18T13:15:34.248Z,1.90
2019-03-18T13:18:03.676Z,0.33
2019-03-18T13:20:33.112Z,0.80
2019-03-18T13:23:02.899Z,0.33
2019-03-18T13:25:32.317Z,0.40
2019-03-18T13:28:01.748Z,0.63
2019-03-18T13:30:31.189Z,1.30
2019-03-18T13:33:00.645Z,0.90
2019-03-18T13:35:30.054Z,0.77
2019-03-18T13:37:59.489Z,1.63
2019-03-18T13:40:28.926Z,0.63
2019-03-18T13:42:58.352Z,0.77
2019-03-18T13:45:27.796Z,0.80
2019-03-18T13:47:57.544Z,0.67
2019-03-18T13:50:26.983Z,1.33
2019-03-18T13:52:56.479Z,1.53
2019-03-18T13:55:25.976Z,0.90
2019-03-18T13:57:55.419Z,0.80
2019-03-18T14:00:24.907Z,1.30
2019-03-18T14:02:56.569Z,1.10
2019-03-18T14:05:26.192Z,3.27
2019-03-18T14:08:00.888Z,1.63
2019-03-18T14:10:28.128Z,2.87
2019-03-18T14:12:57.643Z,3.03
2019-03-18T14:15:27.155Z,2.47
2019-03-18T14:17:57.051Z,1.40
2019-03-18T14:20:28.698Z,5.43
2019-03-18T14:22:58.142Z,9.83
2019-03-18T14:25:27.564Z,2.43
2019-03-18T14:27:56.997Z,3.43
2019-03-18T14:30:26.422Z,1.07
2019-03-18T14:32:55.925Z,1.53
2019-03-18T14:35:25.301Z,11.73
2019-03-18T14:37:54.749Z,4.80
2019-03-18T14:40:25.291Z,0.90
2019-03-18T14:42:54.743Z,2.00
2019-03-18T14:45:25.787Z,2.20
2019-03-18T14:47:55.532Z,1.13
2019-03-18T14:50:24.968Z,0.50
2019-03-18T14:52:54.413Z,2.13
2019-03-18T14:55:23.853Z,2.53
2019-03-18T14:57:53.287Z,1.30
2019-03-18T15:00:27.522Z,0.90
2019-03-18T15:02:56.974Z,1.47
2019-03-18T15:05:26.561Z,2.40
2019-03-18T15:07:55.994Z,1.20
2019-03-18T15:10:28.897Z,1.20
2019-03-18T15:12:58.334Z,0.93
2019-03-18T15:15:27.755Z,1.90
2019-03-18T15:17:57.220Z,2.00
2019-03-18T15:20:30.240Z,0.50
2019-03-18T15:22:59.741Z,1.00
2019-03-18T15:25:34.566Z,1.63
2019-03-18T15:28:04.005Z,1.70
2019-03-18T15:30:33.501Z,0.87
2019-03-18T15:33:02.931Z,0.50
2019-03-18T15:35:32.390Z,0.43
2019-03-18T15:38:01.859Z,1.53
2019-03-18T15:40:31.555Z,0.63
2019-03-18T15:43:00.987Z,1.10
2019-03-18T15:45:30.475Z,0.80
2019-03-18T15:48:00.649Z,0.30
2019-03-18T15:50:30.085Z,0.40
2019-03-18T15:52:59.530Z,0.57
2019-03-18T15:55:28.965Z,0.63
2019-03-18T15:57:58.477Z,1.30
2019-03-18T16:00:32.727Z,0.97
2019-03-18T16:03:02.307Z,0.60
2019-03-18T16:05:31.755Z,1.37
2019-03-18T16:08:01.566Z,0.43
2019-03-18T16:10:31.004Z,1.37
2019-03-18T16:13:00.439Z,0.50
2019-03-18T16:15:29.938Z,0.50
2019-03-18T16:17:59.780Z,0.65
2019-03-18T16:20:29.280Z,0.70
2019-03-18T16:22:58.737Z,0.55
2019-03-18T16:25:28.202Z,0.85
2019-03-18T16:27:57.687Z,0.80
2019-03-18T16:30:27.124Z,1.02
2019-03-18T16:32:56.576Z,0.93
2019-03-18T16:35:26.035Z,0.70
2019-03-18T16:37:55.576Z,0.70
2019-03-18T16:40:25.499Z,2.10
2019-03-18T16:42:55.042Z,0.77
2019-03-18T16:45:24.487Z,1.53
2019-03-18T16:47:53.924Z,0.80
2019-03-18T16:50:28.702Z,0.77
2019-03-18T16:52:58.172Z,0.60
2019-03-18T16:55:28.429Z,0.97
2019-03-18T16:57:57.870Z,0.93
2019-03-18T17:00:30.245Z,2.10
2019-03-18T17:02:59.673Z,0.87
2019-03-18T17:05:29.106Z,0.90
2019-03-18T17:07:58.551Z,1.03
2019-03-18T17:10:28.238Z,0.80
2019-03-18T17:12:57.780Z,1.57
2019-03-18T17:15:27.166Z,1.00
2019-03-18T17:17:56.595Z,1.50
2019-03-18T17:20:26.167Z,0.60
2019-03-18T17:22:55.631Z,1.10
2019-03-18T17:25:30.917Z,3.23
2019-03-18T17:28:00.343Z,1.33
2019-03-18T17:30:29.997Z,2.43
2019-03-18T17:32:59.471Z,1.13
2019-03-18T17:35:28.907Z,1.50
2019-03-18T17:37:58.450Z,1.70
2019-03-18T17:40:27.952Z,0.73
2019-03-18T17:42:57.373Z,0.97
2019-03-18T17:45:26.809Z,0.80
2019-03-18T17:47:56.299Z,0.80
2019-03-18T17:50:28.827Z,0.90
2019-03-18T17:53:02.828Z,0.63
2019-03-18T17:55:29.411Z,0.87
2019-03-18T17:57:58.838Z,0.80
2019-03-18T18:00:35.635Z,0.70
2019-03-18T18:03:05.132Z,0.53
2019-03-18T18:05:34.569Z,0.97
2019-03-18T18:08:04.001Z,1.40
2019-03-18T18:10:33.429Z,1.20
2019-03-18T18:13:02.872Z,0.90
2019-03-18T18:15:32.295Z,1.30
2019-03-18T18:18:02.017Z,1.27
2019-03-18T18:20:31.456Z,0.60
2019-03-18T18:23:13.348Z,2.40
2019-03-18T18:25:32.036Z,1.00
2019-03-18T18:28:01.467Z,1.47
2019-03-18T18:30:30.900Z,1.00
2019-03-18T18:33:00.340Z,2.07
2019-03-18T18:35:29.759Z,0.93
2019-03-18T18:37:59.182Z,3.00
2019-03-18T18:40:30.427Z,2.20
2019-03-18T18:42:59.853Z,1.23
2019-03-18T18:45:29.296Z,0.90
2019-03-18T18:47:58.722Z,1.77
2019-03-18T18:50:28.156Z,2.00
2019-03-18T18:52:57.587Z,1.73
2019-03-18T18:55:27.030Z,1.20
2019-03-18T18:57:56.458Z,1.60
2019-03-18T19:00:25.889Z,1.20
2019-03-18T19:02:55.319Z,1.63
2019-03-18T19:05:24.751Z,0.90
2019-03-18T19:07:54.510Z,1.03
2019-03-18T19:10:23.943Z,1.27
2019-03-18T19:12:53.374Z,4.60
2019-03-18T19:15:29.069Z,1.43
2019-03-18T19:17:58.495Z,1.33
2019-03-18T19:20:27.931Z,2.47
2019-03-18T19:22:57.354Z,1.73
2019-03-18T19:25:26.789Z,1.70
2019-03-18T19:27:56.213Z,1.40
2019-03-18T19:30:25.789Z,1.90
2019-03-18T19:32:55.209Z,1.53
2019-03-18T19:35:24.654Z,1.53
2019-03-18T19:37:54.076Z,1.40
2019-03-18T19:40:24.926Z,1.60
2019-03-18T19:42:54.359Z,1.60
2019-03-18T19:45:23.792Z,2.70
2019-03-18T19:47:53.671Z,2.83
2019-03-18T19:50:33.911Z,2.97
2019-03-18T19:53:03.403Z,1.57
2019-03-18T19:55:32.841Z,1.37
2019-03-18T19:58:02.269Z,1.63
2019-03-18T20:00:32.065Z,2.30
2019-03-18T20:03:01.490Z,2.13
2019-03-18T20:05:30.938Z,2.23
2019-03-18T20:08:00.367Z,2.43
2019-03-18T20:10:29.832Z,2.60
2019-03-18T20:12:59.217Z,2.10
2019-03-18T20:15:28.651Z,2.57
2019-03-18T20:17:58.090Z,3.73
2019-03-18T20:20:27.524Z,2.27
2019-03-18T20:22:56.958Z,2.57
2019-03-18T20:25:26.435Z,3.33
2019-03-18T20:27:55.843Z,2.70
2019-03-18T20:30:25.328Z,2.87
2019-03-18T20:32:54.787Z,2.73
2019-03-18T20:35:25.797Z,2.63
2019-03-18T20:37:55.213Z,3.17
2019-03-18T20:40:24.645Z,2.97
2019-03-18T20:42:54.076Z,2.63
2019-03-18T20:45:26.094Z,2.97
2019-03-18T20:47:55.516Z,3.10
2019-03-18T20:50:25.788Z,2.60
2019-03-18T20:52:55.226Z,3.27
2019-03-18T20:55:24.663Z,2.80
2019-03-18T20:57:54.094Z,2.80
2019-03-18T21:00:24.543Z,2.33
2019-03-18T21:02:54.039Z,2.80
2019-03-18T21:05:25.240Z,2.13
2019-03-18T21:07:54.705Z,2.97
2019-03-18T21:10:24.142Z,3.17
2019-03-18T21:12:53.587Z,2.83
2019-03-18T21:15:23.015Z,3.47
2019-03-18T21:17:52.453Z,2.67
2019-03-18T21:20:28.132Z,3.10
2019-03-18T21:22:57.564Z,3.70
2019-03-18T21:25:26.998Z,2.93
2019-03-18T21:27:56.427Z,3.40
2019-03-18T21:30:25.861Z,3.93
2019-03-18T21:32:55.319Z,2.90
2019-03-18T21:35:24.730Z,3.20
2019-03-18T21:37:54.401Z,3.00
2019-03-18T21:40:23.827Z,2.40
2019-03-18T21:42:53.263Z,2.63
2019-03-18T21:45:24.205Z,3.33
2019-03-18T21:47:53.635Z,3.60
2019-03-18T21:50:23.058Z,3.53
2019-03-18T21:52:52.775Z,3.23
2019-03-18T21:55:22.221Z,2.60
2019-03-18T21:57:51.637Z,3.37
2019-03-18T22:00:22.547Z,3.90
2019-03-18T22:02:51.987Z,3.67
2019-03-18T22:05:21.413Z,6.90
2019-03-18T22:07:50.916Z,4.00
2019-03-18T22:10:21.382Z,3.43
2019-03-18T22:12:51.188Z,4.60
2019-03-18T22:15:20.782Z,4.17
2019-03-18T22:17:50.223Z,3.57
2019-03-18T22:20:20.653Z,3.70
2019-03-18T22:22:50.158Z,3.80
2019-03-18T22:25:19.588Z,4.63
2019-03-18T22:27:49.029Z,5.60
2019-03-18T22:30:19.459Z,3.57
2019-03-18T22:32:48.888Z,5.03
2019-03-18T22:35:18.345Z,3.27
2019-03-18T22:37:47.821Z,3.17
2019-03-18T22:40:18.247Z,2.90
2019-03-18T22:42:47.685Z,3.40
2019-03-18T22:45:18.128Z,5.67
2019-03-18T22:47:47.563Z,4.77
2019-03-18T22:50:20.734Z,3.10
2019-03-18T22:52:50.168Z,3.93
2019-03-18T22:55:19.595Z,4.17
2019-03-18T22:57:49.028Z,4.00
2019-03-18T23:00:24.942Z,3.87
2019-03-18T23:02:54.501Z,3.57
2019-03-18T23:05:24.105Z,4.10
2019-03-18T23:07:53.851Z,4.57
2019-03-18T23:10:23.269Z,4.33
2019-03-18T23:12:52.702Z,8.87
2019-03-18T23:15:22.129Z,4.97
2019-03-18T23:17:51.548Z,5.93
2019-03-18T23:20:21.498Z,5.13
2019-03-18T23:22:50.914Z,4.53
2019-03-18T23:25:20.345Z,6.17
2019-03-18T23:27:49.772Z,5.27
2019-03-18T23:30:19.216Z,6.03
2019-03-18T23:32:49.216Z,3.90
2019-03-18T23:35:18.646Z,5.07
2019-03-18T23:37:48.070Z,5.40
2019-03-18T23:40:17.497Z,4.50
2019-03-18T23:42:46.928Z,5.20
2019-03-18T23:45:16.428Z,4.97
2019-03-18T23:47:45.864Z,4.60
2019-03-18T23:50:16.424Z,4.60
2019-03-18T23:52:45.848Z,4.93
2019-03-18T23:55:19.616Z,4.70
2019-03-18T23:57:46.437Z,5.00
